sensor_id;sensor_type;location;lat;lon;timestamp;P1;durP1;ratioP1;P2;durP2;ratioP2
29516;SDS011;40993;50.594;8.664;2022-07-01T00:02:01;22.98;;;18.90;;
29516;SDS011;40993;50.594;8.664;2022-07-01T00:04:29;22.13;;;18.25;;
29516;SDS011;40993;50.594;8.664;2022-07-01T00:07:15;20.65;;;18.40;;
29516;SDS011;40993;50.594;8.664;2022-07-01T00:09:44;21.92;;;19.05;;
29516;SDS011;40993;50.594;8.664;2022-07-01T00:12:11;23.38;;;18.92;;
29516;SDS011;40993;50.594;8.664;2022-07-01T00:14:39;21.67;;;18.67;;
29516;SDS011;40993;50.594;8.664;2022-07-01T00:17:08;22.23;;;19.83;;
29516;SDS011;40993;50.594;8.664;2022-07-01T00:19:35;25.05;;;20.23;;
29516;SDS011;40993;50.594;8.664;2022-07-01T00:22:03;22.90;;;20.38;;
29516;SDS011;40993;50.594;8.664;2022-07-01T00:24:30;21.90;;;19.60;;
29516;SDS011;40993;50.594;8.664;2022-07-01T00:26:59;21.77;;;19.13;;
29516;SDS011;40993;50.594;8.664;2022-07-01T00:29:26;23.02;;;19.42;;
29516;SDS011;40993;50.594;8.664;2022-07-01T00:31:54;21.85;;;19.00;;
29516;SDS011;40993;50.594;8.664;2022-07-01T00:34:21;24.58;;;19.75;;
29516;SDS011;40993;50.594;8.664;2022-07-01T00:36:49;23.02;;;19.05;;
29516;SDS011;40993;50.594;8.664;2022-07-01T00:39:16;23.67;;;20.40;;
29516;SDS011;40993;50.594;8.664;2022-07-01T00:41:43;24.60;;;20.55;;
29516;SDS011;40993;50.594;8.664;2022-07-01T00:44:18;29.60;;;22.73;;
29516;SDS011;40993;50.594;8.664;2022-07-01T00:46:46;26.88;;;21.80;;
29516;SDS011;40993;50.594;8.664;2022-07-01T00:49:16;24.02;;;21.42;;
29516;SDS011;40993;50.594;8.664;2022-07-01T00:51:44;26.85;;;22.20;;
29516;SDS011;40993;50.594;8.664;2022-07-01T00:54:12;27.88;;;22.60;;
29516;SDS011;40993;50.594;8.664;2022-07-01T00:56:39;26.67;;;21.98;;
29516;SDS011;40993;50.594;8.664;2022-07-01T00:59:07;27.55;;;21.77;;
29516;SDS011;40993;50.594;8.664;2022-07-01T01:01:35;26.13;;;22.73;;
29516;SDS011;40993;50.594;8.664;2022-07-01T01:04:03;26.20;;;22.23;;
29516;SDS011;40993;50.594;8.664;2022-07-01T01:06:31;27.60;;;23.15;;
29516;SDS011;40993;50.594;8.664;2022-07-01T01:08:58;26.38;;;22.63;;
29516;SDS011;40993;50.594;8.664;2022-07-01T01:11:25;29.45;;;21.92;;
29516;SDS011;40993;50.594;8.664;2022-07-01T01:13:54;26.65;;;23.38;;
29516;SDS011;40993;50.594;8.664;2022-07-01T01:16:22;26.20;;;23.08;;
29516;SDS011;40993;50.594;8.664;2022-07-01T01:18:53;29.00;;;24.33;;
29516;SDS011;40993;50.594;8.664;2022-07-01T01:21:23;31.23;;;24.65;;
29516;SDS011;40993;50.594;8.664;2022-07-01T01:23:51;28.92;;;24.30;;
29516;SDS011;40993;50.594;8.664;2022-07-01T01:26:19;29.63;;;24.00;;
29516;SDS011;40993;50.594;8.664;2022-07-01T01:28:50;27.73;;;24.50;;
29516;SDS011;40993;50.594;8.664;2022-07-01T01:31:26;31.30;;;26.90;;
29516;SDS011;40993;50.594;8.664;2022-07-01T01:33:55;32.90;;;26.92;;
29516;SDS011;40993;50.594;8.664;2022-07-01T01:36:24;33.08;;;26.80;;
29516;SDS011;40993;50.594;8.664;2022-07-01T01:38:51;31.25;;;25.70;;
29516;SDS011;40993;50.594;8.664;2022-07-01T01:41:19;34.08;;;27.83;;
29516;SDS011;40993;50.594;8.664;2022-07-01T01:43:46;34.08;;;28.15;;
29516;SDS011;40993;50.594;8.664;2022-07-01T01:46:14;33.15;;;26.63;;
29516;SDS011;40993;50.594;8.664;2022-07-01T01:48:41;37.20;;;27.80;;
29516;SDS011;40993;50.594;8.664;2022-07-01T01:51:09;31.25;;;27.30;;
29516;SDS011;40993;50.594;8.664;2022-07-01T01:53:38;34.22;;;27.52;;
29516;SDS011;40993;50.594;8.664;2022-07-01T01:56:05;29.73;;;26.27;;
29516;SDS011;40993;50.594;8.664;2022-07-01T01:58:32;33.58;;;27.30;;
29516;SDS011;40993;50.594;8.664;2022-07-01T02:01:00;36.60;;;28.52;;
29516;SDS011;40993;50.594;8.664;2022-07-01T02:03:28;32.45;;;28.00;;
29516;SDS011;40993;50.594;8.664;2022-07-01T02:05:56;33.33;;;28.38;;
29516;SDS011;40993;50.594;8.664;2022-07-01T02:08:23;33.10;;;26.92;;
29516;SDS011;40993;50.594;8.664;2022-07-01T02:10:52;35.00;;;27.88;;
29516;SDS011;40993;50.594;8.664;2022-07-01T02:15:51;38.47;;;29.70;;
29516;SDS011;40993;50.594;8.664;2022-07-01T02:18:19;35.00;;;29.80;;
29516;SDS011;40993;50.594;8.664;2022-07-01T02:20:46;38.55;;;30.92;;
29516;SDS011;40993;50.594;8.664;2022-07-01T02:23:14;36.78;;;29.42;;
29516;SDS011;40993;50.594;8.664;2022-07-01T02:25:42;39.53;;;31.30;;
29516;SDS011;40993;50.594;8.664;2022-07-01T02:28:10;37.35;;;31.38;;
29516;SDS011;40993;50.594;8.664;2022-07-01T02:30:38;36.40;;;30.50;;
29516;SDS011;40993;50.594;8.664;2022-07-01T02:33:05;38.42;;;31.35;;
29516;SDS011;40993;50.594;8.664;2022-07-01T02:35:33;45.05;;;33.20;;
29516;SDS011;40993;50.594;8.664;2022-07-01T02:38:02;41.78;;;33.35;;
29516;SDS011;40993;50.594;8.664;2022-07-01T02:40:30;43.13;;;33.17;;
29516;SDS011;40993;50.594;8.664;2022-07-01T02:42:59;42.30;;;33.70;;
29516;SDS011;40993;50.594;8.664;2022-07-01T02:45:28;44.22;;;34.00;;
29516;SDS011;40993;50.594;8.664;2022-07-01T02:47:55;42.03;;;33.67;;
29516;SDS011;40993;50.594;8.664;2022-07-01T02:50:22;40.10;;;33.03;;
29516;SDS011;40993;50.594;8.664;2022-07-01T02:52:55;42.28;;;32.85;;
29516;SDS011;40993;50.594;8.664;2022-07-01T02:55:23;42.80;;;33.83;;
29516;SDS011;40993;50.594;8.664;2022-07-01T02:57:51;43.40;;;33.70;;
29516;SDS011;40993;50.594;8.664;2022-07-01T03:00:19;41.05;;;34.47;;
29516;SDS011;40993;50.594;8.664;2022-07-01T03:02:48;44.53;;;34.92;;
29516;SDS011;40993;50.594;8.664;2022-07-01T03:05:16;43.10;;;34.25;;
29516;SDS011;40993;50.594;8.664;2022-07-01T03:07:43;41.78;;;33.50;;
29516;SDS011;40993;50.594;8.664;2022-07-01T03:10:11;41.08;;;33.83;;
29516;SDS011;40993;50.594;8.664;2022-07-01T03:12:38;46.28;;;35.40;;
29516;SDS011;40993;50.594;8.664;2022-07-01T03:15:07;41.70;;;34.13;;
29516;SDS011;40993;50.594;8.664;2022-07-01T03:17:36;40.83;;;33.75;;
29516;SDS011;40993;50.594;8.664;2022-07-01T03:20:08;43.22;;;34.72;;
29516;SDS011;40993;50.594;8.664;2022-07-01T03:22:37;42.80;;;33.97;;
29516;SDS011;40993;50.594;8.664;2022-07-01T03:25:05;42.97;;;34.17;;
29516;SDS011;40993;50.594;8.664;2022-07-01T03:27:34;42.20;;;33.70;;
29516;SDS011;40993;50.594;8.664;2022-07-01T03:30:02;43.58;;;34.03;;
29516;SDS011;40993;50.594;8.664;2022-07-01T03:32:30;41.85;;;34.70;;
29516;SDS011;40993;50.594;8.664;2022-07-01T03:34:58;45.17;;;34.08;;
29516;SDS011;40993;50.594;8.664;2022-07-01T03:37:27;42.50;;;34.08;;
29516;SDS011;40993;50.594;8.664;2022-07-01T03:39:54;42.60;;;33.05;;
29516;SDS011;40993;50.594;8.664;2022-07-01T03:42:21;44.30;;;33.88;;
29516;SDS011;40993;50.594;8.664;2022-07-01T03:44:49;39.85;;;33.03;;
29516;SDS011;40993;50.594;8.664;2022-07-01T03:47:16;38.67;;;33.20;;
29516;SDS011;40993;50.594;8.664;2022-07-01T03:49:44;42.92;;;34.40;;
29516;SDS011;40993;50.594;8.664;2022-07-01T03:52:11;41.15;;;33.40;;
29516;SDS011;40993;50.594;8.664;2022-07-01T03:54:40;46.00;;;32.97;;
29516;SDS011;40993;50.594;8.664;2022-07-01T03:57:08;39.05;;;31.30;;
29516;SDS011;40993;50.594;8.664;2022-07-01T03:59:37;43.25;;;33.60;;
29516;SDS011;40993;50.594;8.664;2022-07-01T04:02:06;43.38;;;34.92;;
29516;SDS011;40993;50.594;8.664;2022-07-01T04:04:34;44.03;;;34.47;;
29516;SDS011;40993;50.594;8.664;2022-07-01T04:07:04;44.13;;;34.88;;
29516;SDS011;40993;50.594;8.664;2022-07-01T04:09:31;45.92;;;34.25;;
29516;SDS011;40993;50.594;8.664;2022-07-01T04:12:00;44.05;;;34.80;;
29516;SDS011;40993;50.594;8.664;2022-07-01T04:14:28;41.75;;;33.55;;
29516;SDS011;40993;50.594;8.664;2022-07-01T04:16:56;44.47;;;34.70;;
29516;SDS011;40993;50.594;8.664;2022-07-01T04:19:24;43.92;;;34.63;;
29516;SDS011;40993;50.594;8.664;2022-07-01T04:21:51;41.45;;;33.45;;
29516;SDS011;40993;50.594;8.664;2022-07-01T04:24:36;43.55;;;35.30;;
29516;SDS011;40993;50.594;8.664;2022-07-01T04:27:06;40.78;;;33.67;;
29516;SDS011;40993;50.594;8.664;2022-07-01T04:29:33;43.33;;;33.58;;
29516;SDS011;40993;50.594;8.664;2022-07-01T04:32:00;46.90;;;35.78;;
29516;SDS011;40993;50.594;8.664;2022-07-01T04:34:28;45.75;;;34.28;;
29516;SDS011;40993;50.594;8.664;2022-07-01T04:36:56;39.88;;;32.83;;
29516;SDS011;40993;50.594;8.664;2022-07-01T04:39:24;39.97;;;32.75;;
29516;SDS011;40993;50.594;8.664;2022-07-01T04:41:52;43.40;;;33.63;;
29516;SDS011;40993;50.594;8.664;2022-07-01T04:44:30;41.42;;;34.08;;
29516;SDS011;40993;50.594;8.664;2022-07-01T04:46:58;42.70;;;33.63;;
29516;SDS011;40993;50.594;8.664;2022-07-01T04:49:26;39.58;;;32.28;;
29516;SDS011;40993;50.594;8.664;2022-07-01T04:51:54;41.53;;;32.50;;
29516;SDS011;40993;50.594;8.664;2022-07-01T04:54:22;38.55;;;32.80;;
29516;SDS011;40993;50.594;8.664;2022-07-01T04:56:51;38.53;;;32.55;;
29516;SDS011;40993;50.594;8.664;2022-07-01T04:59:19;37.67;;;30.60;;
29516;SDS011;40993;50.594;8.664;2022-07-01T05:01:48;42.42;;;31.65;;
29516;SDS011;40993;50.594;8.664;2022-07-01T05:04:16;38.20;;;32.05;;
29516;SDS011;40993;50.594;8.664;2022-07-01T05:06:43;41.58;;;29.85;;
29516;SDS011;40993;50.594;8.664;2022-07-01T05:09:11;36.78;;;30.05;;
29516;SDS011;40993;50.594;8.664;2022-07-01T05:11:39;40.05;;;31.75;;
29516;SDS011;40993;50.594;8.664;2022-07-01T05:14:07;36.05;;;30.58;;
29516;SDS011;40993;50.594;8.664;2022-07-01T05:16:34;36.80;;;30.02;;
29516;SDS011;40993;50.594;8.664;2022-07-01T05:19:04;38.30;;;29.45;;
29516;SDS011;40993;50.594;8.664;2022-07-01T05:21:49;37.67;;;29.55;;
29516;SDS011;40993;50.594;8.664;2022-07-01T05:24:29;36.53;;;28.58;;
29516;SDS011;40993;50.594;8.664;2022-07-01T05:26:58;37.63;;;28.08;;
29516;SDS011;40993;50.594;8.664;2022-07-01T05:29:27;34.38;;;27.55;;
29516;SDS011;40993;50.594;8.664;2022-07-01T05:31:55;35.40;;;26.75;;
29516;SDS011;40993;50.594;8.664;2022-07-01T05:34:24;32.63;;;26.77;;
29516;SDS011;40993;50.594;8.664;2022-07-01T05:36:51;33.05;;;26.92;;
29516;SDS011;40993;50.594;8.664;2022-07-01T05:39:18;30.98;;;24.85;;
29516;SDS011;40993;50.594;8.664;2022-07-01T05:41:46;32.58;;;26.00;;
29516;SDS011;40993;50.594;8.664;2022-07-01T05:44:13;30.52;;;25.30;;
29516;SDS011;40993;50.594;8.664;2022-07-01T05:46:40;31.88;;;24.80;;
29516;SDS011;40993;50.594;8.664;2022-07-01T05:49:08;29.88;;;22.38;;
29516;SDS011;40993;50.594;8.664;2022-07-01T05:51:44;27.42;;;22.60;;
29516;SDS011;40993;50.594;8.664;2022-07-01T05:54:12;27.10;;;22.30;;
29516;SDS011;40993;50.594;8.664;2022-07-01T05:56:39;27.92;;;22.38;;
29516;SDS011;40993;50.594;8.664;2022-07-01T05:59:06;26.98;;;22.52;;
29516;SDS011;40993;50.594;8.664;2022-07-01T06:01:34;27.17;;;22.05;;
29516;SDS011;40993;50.594;8.664;2022-07-01T06:04:02;24.70;;;18.92;;
29516;SDS011;40993;50.594;8.664;2022-07-01T06:06:29;32.75;;;20.73;;
29516;SDS011;40993;50.594;8.664;2022-07-01T06:08:58;24.02;;;20.13;;
29516;SDS011;40993;50.594;8.664;2022-07-01T06:11:26;29.50;;;26.13;;
29516;SDS011;40993;50.594;8.664;2022-07-01T06:13:53;28.80;;;19.73;;
29516;SDS011;40993;50.594;8.664;2022-07-01T06:16:20;27.40;;;19.70;;
29516;SDS011;40993;50.594;8.664;2022-07-01T06:21:21;26.38;;;18.83;;
29516;SDS011;40993;50.594;8.664;2022-07-01T06:23:49;24.23;;;18.65;;
29516;SDS011;40993;50.594;8.664;2022-07-01T06:26:17;25.63;;;19.88;;
29516;SDS011;40993;50.594;8.664;2022-07-01T06:28:45;30.25;;;19.13;;
29516;SDS011;40993;50.594;8.664;2022-07-01T06:31:12;26.35;;;19.90;;
29516;SDS011;40993;50.594;8.664;2022-07-01T06:33:40;28.05;;;19.15;;
29516;SDS011;40993;50.594;8.664;2022-07-01T06:36:07;24.80;;;20.23;;
29516;SDS011;40993;50.594;8.664;2022-07-01T06:38:35;28.52;;;20.77;;
29516;SDS011;40993;50.594;8.664;2022-07-01T06:41:02;25.33;;;20.13;;
29516;SDS011;40993;50.594;8.664;2022-07-01T06:43:48;27.55;;;19.70;;
29516;SDS011;40993;50.594;8.664;2022-07-01T06:46:16;31.67;;;19.65;;
29516;SDS011;40993;50.594;8.664;2022-07-01T06:48:43;27.15;;;18.58;;
29516;SDS011;40993;50.594;8.664;2022-07-01T06:51:11;26.15;;;19.55;;
29516;SDS011;40993;50.594;8.664;2022-07-01T06:53:38;24.08;;;20.27;;
29516;SDS011;40993;50.594;8.664;2022-07-01T06:56:05;26.85;;;19.55;;
29516;SDS011;40993;50.594;8.664;2022-07-01T06:58:33;23.17;;;17.70;;
29516;SDS011;40993;50.594;8.664;2022-07-01T07:01:02;24.02;;;18.33;;
29516;SDS011;40993;50.594;8.664;2022-07-01T07:03:29;26.10;;;18.42;;
29516;SDS011;40993;50.594;8.664;2022-07-01T07:05:58;35.42;;;20.60;;
29516;SDS011;40993;50.594;8.664;2022-07-01T07:08:26;30.02;;;19.77;;
29516;SDS011;40993;50.594;8.664;2022-07-01T07:10:53;31.52;;;20.42;;
29516;SDS011;40993;50.594;8.664;2022-07-01T07:13:21;37.83;;;20.50;;
29516;SDS011;40993;50.594;8.664;2022-07-01T07:15:48;29.05;;;19.85;;
29516;SDS011;40993;50.594;8.664;2022-07-01T07:18:17;28.35;;;19.17;;
29516;SDS011;40993;50.594;8.664;2022-07-01T07:20:45;23.58;;;19.50;;
29516;SDS011;40993;50.594;8.664;2022-07-01T07:23:13;28.55;;;20.15;;
29516;SDS011;40993;50.594;8.664;2022-07-01T07:25:41;24.80;;;17.75;;
29516;SDS011;40993;50.594;8.664;2022-07-01T07:28:08;24.70;;;17.42;;
29516;SDS011;40993;50.594;8.664;2022-07-01T07:30:36;24.23;;;17.55;;
29516;SDS011;40993;50.594;8.664;2022-07-01T07:33:03;19.73;;;17.52;;
29516;SDS011;40993;50.594;8.664;2022-07-01T07:35:32;24.23;;;16.58;;
29516;SDS011;40993;50.594;8.664;2022-07-01T07:37:59;20.70;;;16.70;;
29516;SDS011;40993;50.594;8.664;2022-07-01T07:40:27;21.50;;;17.20;;
29516;SDS011;40993;50.594;8.664;2022-07-01T07:42:54;21.42;;;16.80;;
29516;SDS011;40993;50.594;8.664;2022-07-01T07:45:22;19.67;;;14.65;;
29516;SDS011;40993;50.594;8.664;2022-07-01T07:47:49;33.42;;;15.00;;
29516;SDS011;40993;50.594;8.664;2022-07-01T07:50:17;22.65;;;16.08;;
29516;SDS011;40993;50.594;8.664;2022-07-01T07:52:46;20.88;;;15.32;;
29516;SDS011;40993;50.594;8.664;2022-07-01T07:55:13;23.45;;;15.45;;
29516;SDS011;40993;50.594;8.664;2022-07-01T07:57:40;18.48;;;14.93;;
29516;SDS011;40993;50.594;8.664;2022-07-01T08:00:09;20.10;;;15.15;;
29516;SDS011;40993;50.594;8.664;2022-07-01T08:02:38;20.30;;;15.32;;
29516;SDS011;40993;50.594;8.664;2022-07-01T08:05:06;22.67;;;16.52;;
29516;SDS011;40993;50.594;8.664;2022-07-01T08:07:34;23.27;;;15.55;;
29516;SDS011;40993;50.594;8.664;2022-07-01T08:10:04;22.10;;;14.80;;
29516;SDS011;40993;50.594;8.664;2022-07-01T08:12:32;55.85;;;17.23;;
29516;SDS011;40993;50.594;8.664;2022-07-01T08:15:00;26.33;;;16.45;;
29516;SDS011;40993;50.594;8.664;2022-07-01T08:17:27;24.42;;;15.40;;
29516;SDS011;40993;50.594;8.664;2022-07-01T08:19:55;26.77;;;15.50;;
29516;SDS011;40993;50.594;8.664;2022-07-01T08:22:22;20.92;;;16.05;;
29516;SDS011;40993;50.594;8.664;2022-07-01T08:24:50;20.33;;;16.63;;
29516;SDS011;40993;50.594;8.664;2022-07-01T08:27:19;17.75;;;15.30;;
29516;SDS011;40993;50.594;8.664;2022-07-01T08:29:46;19.63;;;16.13;;
29516;SDS011;40993;50.594;8.664;2022-07-01T08:32:13;25.05;;;15.85;;
29516;SDS011;40993;50.594;8.664;2022-07-01T08:34:41;37.38;;;16.85;;
29516;SDS011;40993;50.594;8.664;2022-07-01T08:37:08;23.00;;;14.88;;
29516;SDS011;40993;50.594;8.664;2022-07-01T08:39:36;18.80;;;13.40;;
29516;SDS011;40993;50.594;8.664;2022-07-01T08:42:03;15.30;;;12.55;;
29516;SDS011;40993;50.594;8.664;2022-07-01T08:44:33;21.83;;;13.23;;
29516;SDS011;40993;50.594;8.664;2022-07-01T08:47:01;14.80;;;10.52;;
29516;SDS011;40993;50.594;8.664;2022-07-01T08:49:28;17.63;;;11.10;;
29516;SDS011;40993;50.594;8.664;2022-07-01T08:51:57;16.48;;;10.25;;
29516;SDS011;40993;50.594;8.664;2022-07-01T08:54:25;12.70;;;9.88;;
29516;SDS011;40993;50.594;8.664;2022-07-01T08:56:52;14.63;;;10.00;;
29516;SDS011;40993;50.594;8.664;2022-07-01T08:59:24;29.50;;;12.23;;
29516;SDS011;40993;50.594;8.664;2022-07-01T09:01:58;13.88;;;10.43;;
29516;SDS011;40993;50.594;8.664;2022-07-01T09:04:26;15.40;;;11.60;;
29516;SDS011;40993;50.594;8.664;2022-07-01T09:06:58;18.52;;;11.23;;
29516;SDS011;40993;50.594;8.664;2022-07-01T09:09:28;13.93;;;10.02;;
29516;SDS011;40993;50.594;8.664;2022-07-01T09:12:00;18.10;;;11.67;;
29516;SDS011;40993;50.594;8.664;2022-07-01T09:14:28;17.42;;;10.40;;
29516;SDS011;40993;50.594;8.664;2022-07-01T09:16:59;24.08;;;11.15;;
29516;SDS011;40993;50.594;8.664;2022-07-01T09:19:28;18.20;;;11.05;;
29516;SDS011;40993;50.594;8.664;2022-07-01T09:22:00;16.08;;;10.43;;
29516;SDS011;40993;50.594;8.664;2022-07-01T09:24:29;14.63;;;10.20;;
29516;SDS011;40993;50.594;8.664;2022-07-01T09:27:02;31.07;;;12.60;;
29516;SDS011;40993;50.594;8.664;2022-07-01T09:29:33;18.70;;;10.75;;
29516;SDS011;40993;50.594;8.664;2022-07-01T09:32:03;16.58;;;11.25;;
29516;SDS011;40993;50.594;8.664;2022-07-01T09:34:33;47.53;;;16.08;;
29516;SDS011;40993;50.594;8.664;2022-07-01T09:37:01;33.60;;;4.20;;
29516;SDS011;40993;50.594;8.664;2022-07-01T09:39:30;44.13;;;4.18;;
29516;SDS011;40993;50.594;8.664;2022-07-01T09:42:06;15.68;;;3.40;;
29516;SDS011;40993;50.594;8.664;2022-07-01T09:44:33;15.48;;;3.50;;
29516;SDS011;40993;50.594;8.664;2022-07-01T09:47:03;11.45;;;3.47;;
29516;SDS011;40993;50.594;8.664;2022-07-01T09:49:31;10.98;;;2.90;;
29516;SDS011;40993;50.594;8.664;2022-07-01T09:51:59;16.20;;;2.80;;
29516;SDS011;40993;50.594;8.664;2022-07-01T09:54:26;11.48;;;2.75;;
29516;SDS011;40993;50.594;8.664;2022-07-01T09:56:54;19.52;;;3.03;;
29516;SDS011;40993;50.594;8.664;2022-07-01T09:59:21;8.32;;;2.30;;
29516;SDS011;40993;50.594;8.664;2022-07-01T10:01:48;64.63;;;3.85;;
29516;SDS011;40993;50.594;8.664;2022-07-01T10:04:17;32.08;;;2.83;;
29516;SDS011;40993;50.594;8.664;2022-07-01T10:09:55;5.53;;;1.75;;
29516;SDS011;40993;50.594;8.664;2022-07-01T10:12:31;14.07;;;2.08;;
29516;SDS011;40993;50.594;8.664;2022-07-01T10:15:03;10.55;;;2.20;;
29516;SDS011;40993;50.594;8.664;2022-07-01T10:17:34;27.95;;;2.13;;
29516;SDS011;40993;50.594;8.664;2022-07-01T10:20:07;15.13;;;2.05;;
29516;SDS011;40993;50.594;8.664;2022-07-01T10:22:37;4.47;;;1.60;;
29516;SDS011;40993;50.594;8.664;2022-07-01T10:28:24;18.77;;;2.13;;
29516;SDS011;40993;50.594;8.664;2022-07-01T10:30:53;1.90;;;1.50;;
29516;SDS011;40993;50.594;8.664;2022-07-01T10:33:26;3.53;;;1.35;;
29516;SDS011;40993;50.594;8.664;2022-07-01T10:35:56;13.95;;;2.10;;
29516;SDS011;40993;50.594;8.664;2022-07-01T10:38:30;7.60;;;1.85;;
29516;SDS011;40993;50.594;8.664;2022-07-01T10:40:58;5.05;;;1.92;;
29516;SDS011;40993;50.594;8.664;2022-07-01T10:43:36;31.08;;;3.25;;
29516;SDS011;40993;50.594;8.664;2022-07-01T10:46:06;7.45;;;1.80;;
29516;SDS011;40993;50.594;8.664;2022-07-01T10:48:34;6.85;;;1.58;;
29516;SDS011;40993;50.594;8.664;2022-07-01T10:51:03;7.65;;;1.80;;
29516;SDS011;40993;50.594;8.664;2022-07-01T10:53:44;12.63;;;2.13;;
29516;SDS011;40993;50.594;8.664;2022-07-01T10:56:23;16.25;;;1.80;;
29516;SDS011;40993;50.594;8.664;2022-07-01T10:59:04;5.88;;;1.70;;
29516;SDS011;40993;50.594;8.664;2022-07-01T11:01:32;25.80;;;3.03;;
29516;SDS011;40993;50.594;8.664;2022-07-01T11:03:59;6.63;;;1.40;;
29516;SDS011;40993;50.594;8.664;2022-07-01T11:06:30;5.20;;;1.10;;
29516;SDS011;40993;50.594;8.664;2022-07-01T11:09:02;8.10;;;5.80;;
29516;SDS011;40993;50.594;8.664;2022-07-01T11:11:29;8.63;;;0.95;;
29516;SDS011;40993;50.594;8.664;2022-07-01T11:13:57;6.53;;;1.08;;
29516;SDS011;40993;50.594;8.664;2022-07-01T11:16:25;4.82;;;0.90;;
29516;SDS011;40993;50.594;8.664;2022-07-01T11:18:52;4.57;;;0.70;;
29516;SDS011;40993;50.594;8.664;2022-07-01T11:21:20;7.97;;;1.42;;
29516;SDS011;40993;50.594;8.664;2022-07-01T11:23:55;19.35;;;1.63;;
29516;SDS011;40993;50.594;8.664;2022-07-01T11:26:23;16.05;;;1.17;;
29516;SDS011;40993;50.594;8.664;2022-07-01T11:28:51;9.98;;;1.17;;
29516;SDS011;40993;50.594;8.664;2022-07-01T11:31:28;3.63;;;0.85;;
29516;SDS011;40993;50.594;8.664;2022-07-01T11:33:56;11.05;;;1.30;;
29516;SDS011;40993;50.594;8.664;2022-07-01T11:36:24;7.10;;;1.00;;
29516;SDS011;40993;50.594;8.664;2022-07-01T11:39:11;5.38;;;1.00;;
29516;SDS011;40993;50.594;8.664;2022-07-01T11:41:54;7.60;;;1.02;;
29516;SDS011;40993;50.594;8.664;2022-07-01T11:44:29;214.77;;;11.23;;
29516;SDS011;40993;50.594;8.664;2022-07-01T11:47:00;2.63;;;0.80;;
29516;SDS011;40993;50.594;8.664;2022-07-01T11:49:28;10.32;;;0.90;;
29516;SDS011;40993;50.594;8.664;2022-07-01T11:51:56;4.03;;;0.93;;
29516;SDS011;40993;50.594;8.664;2022-07-01T11:54:26;5.00;;;0.95;;
29516;SDS011;40993;50.594;8.664;2022-07-01T11:56:53;2.33;;;0.80;;
29516;SDS011;40993;50.594;8.664;2022-07-01T11:59:21;2.45;;;0.75;;
29516;SDS011;40993;50.594;8.664;2022-07-01T12:01:52;4.43;;;1.08;;
29516;SDS011;40993;50.594;8.664;2022-07-01T12:04:20;1.83;;;1.02;;
29516;SDS011;40993;50.594;8.664;2022-07-01T12:06:48;4.22;;;1.10;;
29516;SDS011;40993;50.594;8.664;2022-07-01T12:09:16;11.23;;;1.52;;
29516;SDS011;40993;50.594;8.664;2022-07-01T12:11:46;3.25;;;1.55;;
29516;SDS011;40993;50.594;8.664;2022-07-01T12:14:19;3.67;;;1.40;;
29516;SDS011;40993;50.594;8.664;2022-07-01T12:16:47;5.13;;;1.40;;
29516;SDS011;40993;50.594;8.664;2022-07-01T12:19:14;5.03;;;1.70;;
29516;SDS011;40993;50.594;8.664;2022-07-01T12:21:49;6.55;;;1.90;;
29516;SDS011;40993;50.594;8.664;2022-07-01T12:24:17;9.48;;;2.20;;
29516;SDS011;40993;50.594;8.664;2022-07-01T12:26:50;8.32;;;2.25;;
29516;SDS011;40993;50.594;8.664;2022-07-01T12:29:19;4.75;;;2.30;;
29516;SDS011;40993;50.594;8.664;2022-07-01T12:31:55;4.50;;;2.35;;
29516;SDS011;40993;50.594;8.664;2022-07-01T12:34:23;3.50;;;1.98;;
29516;SDS011;40993;50.594;8.664;2022-07-01T12:37:03;11.32;;;3.05;;
29516;SDS011;40993;50.594;8.664;2022-07-01T12:39:41;6.68;;;2.38;;
29516;SDS011;40993;50.594;8.664;2022-07-01T12:42:20;4.70;;;1.88;;
29516;SDS011;40993;50.594;8.664;2022-07-01T12:44:48;5.93;;;2.50;;
29516;SDS011;40993;50.594;8.664;2022-07-01T12:47:17;4.45;;;2.30;;
29516;SDS011;40993;50.594;8.664;2022-07-01T12:49:45;3.65;;;2.10;;
29516;SDS011;40993;50.594;8.664;2022-07-01T12:52:22;4.30;;;2.40;;
29516;SDS011;40993;50.594;8.664;2022-07-01T12:54:51;11.25;;;2.55;;
29516;SDS011;40993;50.594;8.664;2022-07-01T12:57:29;6.60;;;2.40;;
29516;SDS011;40993;50.594;8.664;2022-07-01T13:00:04;5.55;;;2.72;;
29516;SDS011;40993;50.594;8.664;2022-07-01T13:02:33;6.68;;;3.40;;
29516;SDS011;40993;50.594;8.664;2022-07-01T13:05:00;5.95;;;3.20;;
29516;SDS011;40993;50.594;8.664;2022-07-01T13:07:28;6.03;;;3.40;;
29516;SDS011;40993;50.594;8.664;2022-07-01T13:09:55;9.63;;;3.50;;
29516;SDS011;40993;50.594;8.664;2022-07-01T13:12:23;7.85;;;3.10;;
29516;SDS011;40993;50.594;8.664;2022-07-01T13:14:51;6.55;;;3.22;;
29516;SDS011;40993;50.594;8.664;2022-07-01T13:17:19;5.80;;;3.40;;
29516;SDS011;40993;50.594;8.664;2022-07-01T13:19:47;5.32;;;3.40;;
29516;SDS011;40993;50.594;8.664;2022-07-01T13:22:15;7.80;;;3.78;;
29516;SDS011;40993;50.594;8.664;2022-07-01T13:24:42;5.88;;;3.92;;
29516;SDS011;40993;50.594;8.664;2022-07-01T13:27:10;9.73;;;3.70;;
29516;SDS011;40993;50.594;8.664;2022-07-01T13:29:37;6.40;;;4.18;;
29516;SDS011;40993;50.594;8.664;2022-07-01T13:32:06;5.57;;;3.80;;
29516;SDS011;40993;50.594;8.664;2022-07-01T13:34:34;7.03;;;3.97;;
29516;SDS011;40993;50.594;8.664;2022-07-01T13:37:02;34.17;;;5.30;;
29516;SDS011;40993;50.594;8.664;2022-07-01T13:39:29;7.18;;;4.13;;
29516;SDS011;40993;50.594;8.664;2022-07-01T13:41:57;6.07;;;3.60;;
29516;SDS011;40993;50.594;8.664;2022-07-01T13:44:24;6.78;;;3.78;;
29516;SDS011;40993;50.594;8.664;2022-07-01T13:46:52;8.88;;;4.80;;
29516;SDS011;40993;50.594;8.664;2022-07-01T13:49:20;7.13;;;3.78;;
29516;SDS011;40993;50.594;8.664;2022-07-01T13:51:48;6.68;;;4.43;;
29516;SDS011;40993;50.594;8.664;2022-07-01T13:54:16;7.43;;;4.25;;
29516;SDS011;40993;50.594;8.664;2022-07-01T13:56:43;5.85;;;4.60;;
29516;SDS011;40993;50.594;8.664;2022-07-01T13:59:11;9.25;;;5.03;;
29516;SDS011;40993;50.594;8.664;2022-07-01T14:01:38;6.60;;;4.53;;
29516;SDS011;40993;50.594;8.664;2022-07-01T14:04:06;6.00;;;4.60;;
29516;SDS011;40993;50.594;8.664;2022-07-01T14:06:35;12.00;;;4.43;;
29516;SDS011;40993;50.594;8.664;2022-07-01T14:09:02;7.10;;;4.75;;
29516;SDS011;40993;50.594;8.664;2022-07-01T14:11:30;14.65;;;4.50;;
29516;SDS011;40993;50.594;8.664;2022-07-01T14:13:57;6.70;;;4.55;;
29516;SDS011;40993;50.594;8.664;2022-07-01T14:16:25;6.90;;;4.00;;
29516;SDS011;40993;50.594;8.664;2022-07-01T14:18:56;6.70;;;4.28;;
29516;SDS011;40993;50.594;8.664;2022-07-01T14:21:24;11.13;;;4.57;;
29516;SDS011;40993;50.594;8.664;2022-07-01T14:23:53;8.60;;;4.80;;
29516;SDS011;40993;50.594;8.664;2022-07-01T14:26:21;7.32;;;4.00;;
29516;SDS011;40993;50.594;8.664;2022-07-01T14:28:49;6.57;;;3.83;;
29516;SDS011;40993;50.594;8.664;2022-07-01T14:31:16;10.30;;;4.00;;
29516;SDS011;40993;50.594;8.664;2022-07-01T14:33:44;7.10;;;4.00;;
29516;SDS011;40993;50.594;8.664;2022-07-01T14:36:12;6.97;;;3.90;;
29516;SDS011;40993;50.594;8.664;2022-07-01T14:38:39;5.47;;;3.67;;
29516;SDS011;40993;50.594;8.664;2022-07-01T14:41:08;6.68;;;4.03;;
29516;SDS011;40993;50.594;8.664;2022-07-01T14:43:35;11.20;;;4.68;;
29516;SDS011;40993;50.594;8.664;2022-07-01T14:46:04;11.70;;;4.97;;
29516;SDS011;40993;50.594;8.664;2022-07-01T14:48:35;7.40;;;4.97;;
29516;SDS011;40993;50.594;8.664;2022-07-01T14:51:05;9.25;;;5.18;;